createdAt,value
2022-12-26T00:02:43.853Z,9.58
2022-12-26T00:05:26.931Z,9.55
2022-12-26T00:08:11.093Z,9.52
2022-12-26T00:10:56.541Z,9.49
2022-12-26T00:13:43.543Z,9.49
2022-12-26T00:16:27.292Z,9.49
2022-12-26T00:19:12.004Z,9.49
2022-12-26T00:21:54.299Z,9.47
2022-12-26T00:24:40.555Z,9.45
2022-12-26T00:27:24.539Z,9.42
2022-12-26T00:30:04.347Z,9.39
2022-12-26T00:32:52.070Z,9.39
2022-12-26T00:35:41.308Z,9.36
2022-12-26T00:38:29.454Z,9.36
2022-12-26T00:41:16.950Z,9.38
2022-12-26T00:44:01.391Z,9.39
2022-12-26T00:46:44.635Z,9.40
2022-12-26T00:49:21.256Z,9.39
2022-12-26T00:52:03.320Z,9.38
2022-12-26T00:54:47.088Z,9.38
2022-12-26T00:57:37.531Z,9.37
2022-12-26T01:00:22.883Z,9.35
2022-12-26T01:03:04.608Z,9.34
2022-12-26T01:05:56.486Z,9.32
2022-12-26T01:08:41.588Z,9.29
2022-12-26T01:11:41.990Z,9.24
2022-12-26T01:14:26.825Z,9.17
2022-12-26T01:17:06.787Z,9.10
2022-12-26T01:19:46.947Z,9.05
2022-12-26T01:22:33.469Z,9.02
2022-12-26T01:25:17.412Z,8.99
2022-12-26T01:28:04.168Z,8.97
2022-12-26T01:30:46.602Z,8.97
2022-12-26T01:33:35.193Z,8.98
2022-12-26T01:36:23.740Z,8.99
2022-12-26T01:39:05.906Z,9.00
2022-12-26T01:41:45.124Z,8.99
2022-12-26T01:45:01.269Z,8.99
2022-12-26T01:48:08.760Z,9.00
2022-12-26T01:51:10.417Z,9.02
2022-12-26T01:53:56.330Z,9.04
2022-12-26T01:57:04.200Z,9.04
2022-12-26T01:59:50.139Z,9.04
2022-12-26T02:02:35.000Z,9.02
2022-12-26T02:05:37.578Z,8.98
2022-12-26T02:08:29.832Z,8.98
2022-12-26T02:11:47.875Z,8.99
2022-12-26T02:14:50.716Z,9.02
2022-12-26T02:17:32.920Z,9.04
2022-12-26T02:20:30.900Z,9.06
2022-12-26T02:23:27.341Z,9.06
2022-12-26T02:26:37.236Z,9.06
2022-12-26T02:29:32.092Z,9.04
2022-12-26T02:32:53.992Z,9.02
2022-12-26T02:35:58.372Z,9.03
2022-12-26T02:39:43.479Z,9.04
2022-12-26T02:42:33.130Z,9.08
2022-12-26T02:45:50.548Z,9.12
2022-12-26T02:48:57.646Z,9.14
2022-12-26T02:52:22.028Z,9.16
2022-12-26T02:55:31.736Z,9.17
2022-12-26T02:59:02.064Z,9.16
2022-12-26T03:02:11.954Z,9.16
2022-12-26T03:05:16.513Z,9.16
2022-12-26T03:08:26.729Z,9.19
2022-12-26T03:11:20.461Z,9.24
2022-12-26T03:14:06.053Z,9.28
2022-12-26T03:17:04.922Z,9.31
2022-12-26T03:20:02.464Z,9.31
2022-12-26T03:23:00.385Z,9.31
2022-12-26T03:26:20.663Z,9.30
2022-12-26T03:29:23.899Z,9.31
2022-12-26T03:32:07.413Z,9.32
2022-12-26T03:34:52.823Z,9.33
2022-12-26T03:37:56.426Z,9.35
2022-12-26T03:41:11.378Z,9.35
2022-12-26T03:44:33.518Z,9.33
2022-12-26T03:47:51.718Z,9.32
2022-12-26T03:51:03.749Z,9.32
2022-12-26T03:54:39.035Z,9.33
2022-12-26T03:57:48.146Z,9.34
2022-12-26T04:00:56.601Z,9.36
2022-12-26T04:03:59.820Z,9.37
2022-12-26T04:07:18.102Z,9.35
2022-12-26T04:10:24.850Z,9.34
2022-12-26T04:13:32.602Z,9.35
2022-12-26T04:17:08.149Z,9.39
2022-12-26T04:20:21.462Z,9.43
2022-12-26T04:23:34.842Z,9.47
2022-12-26T04:26:39.684Z,9.48
2022-12-26T04:29:45.116Z,9.47
2022-12-26T04:36:19.935Z,9.45
2022-12-26T04:39:29.729Z,9.44
2022-12-26T04:42:31.701Z,9.46
2022-12-26T04:45:16.191Z,9.49
2022-12-26T04:48:23.470Z,9.52
2022-12-26T04:51:06.500Z,9.54
2022-12-26T04:53:53.428Z,9.54
2022-12-26T04:56:32.297Z,9.52
2022-12-26T04:59:14.195Z,9.50
2022-12-26T05:02:17.886Z,9.48
2022-12-26T05:05:14.849Z,9.47
2022-12-26T05:08:19.345Z,9.49
2022-12-26T05:11:11.917Z,9.49
2022-12-26T05:13:52.937Z,9.51
2022-12-26T05:16:52.563Z,9.51
2022-12-26T05:20:05.215Z,9.49
2022-12-26T05:23:10.251Z,9.47
2022-12-26T05:26:09.378Z,9.45
2022-12-26T05:28:56.941Z,9.43
2022-12-26T05:31:36.230Z,9.42
2022-12-26T05:34:23.433Z,9.41
2022-12-26T05:37:11.513Z,9.39
2022-12-26T05:39:55.616Z,9.36
2022-12-26T05:42:38.985Z,9.34
2022-12-26T05:45:20.883Z,9.31
2022-12-26T05:48:09.694Z,9.29
2022-12-26T05:50:53.774Z,9.29
2022-12-26T05:53:36.776Z,9.28
2022-12-26T05:56:21.021Z,9.29
2022-12-26T05:59:07.962Z,9.31
2022-12-26T06:01:49.930Z,9.31
2022-12-26T06:04:33.092Z,9.32
2022-12-26T06:07:14.321Z,9.30
2022-12-26T06:09:59.179Z,9.29
2022-12-26T06:12:43.735Z,9.28
2022-12-26T06:15:25.120Z,9.26
2022-12-26T06:18:13.134Z,9.23
2022-12-26T06:20:51.375Z,9.19
2022-12-26T06:23:31.704Z,9.17
2022-12-26T06:26:16.622Z,9.16
2022-12-26T06:28:58.735Z,9.15
2022-12-26T06:31:48.084Z,9.12
2022-12-26T06:34:30.061Z,9.11
2022-12-26T06:37:13.110Z,9.14
2022-12-26T06:39:56.107Z,9.16
2022-12-26T06:42:45.842Z,9.18
2022-12-26T06:45:31.781Z,9.19
2022-12-26T06:48:15.393Z,9.18
2022-12-26T06:50:56.972Z,9.16
2022-12-26T06:53:36.108Z,9.12
2022-12-26T06:56:29.452Z,9.06
2022-12-26T06:59:15.863Z,9.04
2022-12-26T07:02:03.746Z,9.02
2022-12-26T07:04:46.241Z,9.01
2022-12-26T07:07:31.241Z,9.06
2022-12-26T07:10:11.484Z,9.11
2022-12-26T07:12:53.290Z,9.09
2022-12-26T07:15:32.981Z,9.06
2022-12-26T07:18:17.240Z,9.06
2022-12-26T07:20:59.037Z,9.09
2022-12-26T07:23:47.888Z,9.07
2022-12-26T07:26:31.019Z,9.05
2022-12-26T07:29:15.232Z,9.05
2022-12-26T07:31:56.330Z,9.08
2022-12-26T07:34:38.314Z,9.13
2022-12-26T07:37:20.627Z,9.21
2022-12-26T07:40:06.133Z,9.31
2022-12-26T07:42:45.059Z,9.35
2022-12-26T07:45:25.422Z,9.34
2022-12-26T07:48:09.560Z,9.36
2022-12-26T07:50:58.129Z,9.38
2022-12-26T07:53:50.107Z,9.40
2022-12-26T07:56:39.293Z,9.41
2022-12-26T07:59:23.221Z,9.45
2022-12-26T08:02:20.604Z,9.48
2022-12-26T08:05:03.423Z,9.52
2022-12-26T08:07:50.429Z,9.55
2022-12-26T08:10:30.633Z,9.55
2022-12-26T08:13:11.407Z,9.54
2022-12-26T08:15:50.751Z,9.51
2022-12-26T08:18:32.119Z,9.51
2022-12-26T08:21:16.339Z,9.55
2022-12-26T08:23:57.020Z,9.58
2022-12-26T08:26:37.202Z,9.60
2022-12-26T08:29:15.951Z,9.64
2022-12-26T08:31:58.928Z,9.66
2022-12-26T08:34:46.241Z,9.67
2022-12-26T08:37:27.681Z,9.69
2022-12-26T08:40:08.227Z,9.71
2022-12-26T08:43:12.217Z,9.75
2022-12-26T08:46:06.717Z,9.79
2022-12-26T08:48:50.546Z,9.84
2022-12-26T08:51:37.841Z,9.89
2022-12-26T08:54:15.670Z,10.05
2022-12-26T08:57:06.260Z,10.32
2022-12-26T08:59:49.668Z,10.65
2022-12-26T09:02:33.597Z,10.96
2022-12-26T09:05:16.929Z,11.27
2022-12-26T09:07:59.320Z,11.58
2022-12-26T09:10:41.092Z,11.82
2022-12-26T09:13:28.131Z,11.89
2022-12-26T09:16:12.671Z,11.83
2022-12-26T09:19:00.457Z,11.73
2022-12-26T09:21:47.464Z,11.61
2022-12-26T09:24:29.374Z,11.49
2022-12-26T09:27:12.561Z,11.43
2022-12-26T09:29:56.498Z,11.51
2022-12-26T09:32:44.800Z,11.58
2022-12-26T09:35:34.067Z,11.65
2022-12-26T09:38:20.021Z,11.73
2022-12-26T09:41:11.792Z,11.80
2022-12-26T09:44:10.860Z,11.87
2022-12-26T09:47:22.851Z,12.00
2022-12-26T09:50:17.604Z,12.09
2022-12-26T09:53:07.684Z,12.15
2022-12-26T09:56:18.369Z,12.22
2022-12-26T09:59:13.416Z,12.32
2022-12-26T10:01:49.227Z,12.43
2022-12-26T10:04:33.752Z,12.51
2022-12-26T10:07:31.095Z,12.58
2022-12-26T10:10:15.303Z,12.72
2022-12-26T10:13:06.415Z,12.83
2022-12-26T10:15:53.423Z,12.84
2022-12-26T10:18:52.898Z,12.81
2022-12-26T10:21:43.284Z,12.74
2022-12-26T10:24:33.434Z,12.65
2022-12-26T10:27:21.324Z,12.55
2022-12-26T10:30:11.293Z,12.45
2022-12-26T10:33:11.116Z,12.34
2022-12-26T10:35:57.861Z,12.28
2022-12-26T10:38:48.400Z,12.26
2022-12-26T10:41:46.721Z,12.22
2022-12-26T10:44:28.248Z,12.19
2022-12-26T10:47:33.940Z,12.21
2022-12-26T10:50:38.871Z,12.24
2022-12-26T10:53:23.923Z,12.25
2022-12-26T10:56:13.230Z,12.35
2022-12-26T10:59:06.670Z,12.53
2022-12-26T11:01:54.571Z,12.77
2022-12-26T11:05:11.288Z,13.01
2022-12-26T11:07:50.706Z,13.21
2022-12-26T11:10:48.930Z,13.38
2022-12-26T11:13:39.506Z,13.46
2022-12-26T11:16:35.318Z,13.47
2022-12-26T11:19:54.882Z,13.43
2022-12-26T11:22:42.689Z,13.36
2022-12-26T11:25:26.870Z,13.31
2022-12-26T11:28:23.444Z,13.28
2022-12-26T11:31:09.552Z,13.24
2022-12-26T11:33:56.381Z,13.23
2022-12-26T11:36:44.507Z,13.20
2022-12-26T11:39:41.193Z,13.16
2022-12-26T11:42:26.688Z,13.12
2022-12-26T11:45:18.912Z,13.12
2022-12-26T11:48:05.673Z,13.15
2022-12-26T11:50:54.270Z,13.24
2022-12-26T11:53:42.017Z,13.36
2022-12-26T11:56:35.275Z,13.46
2022-12-26T11:59:28.634Z,13.54
2022-12-26T12:02:36.945Z,13.56
2022-12-26T12:05:32.578Z,13.51
2022-12-26T12:08:40.460Z,13.49
2022-12-26T12:11:44.140Z,13.50
2022-12-26T12:14:41.793Z,13.51
2022-12-26T12:17:32.743Z,13.49
2022-12-26T12:20:34.099Z,13.45
2022-12-26T12:23:18.038Z,13.41
2022-12-26T12:26:23.076Z,13.38
2022-12-26T12:29:13.907Z,13.39
2022-12-26T12:32:28.501Z,13.43
2022-12-26T12:35:28.261Z,13.50
2022-12-26T12:38:28.591Z,13.55
2022-12-26T12:41:31.808Z,13.52
2022-12-26T12:44:52.715Z,13.46
2022-12-26T12:47:51.924Z,13.39
2022-12-26T12:51:11.497Z,13.33
2022-12-26T12:54:22.115Z,13.20
2022-12-26T12:57:37.760Z,13.08
2022-12-26T13:00:24.327Z,12.99
2022-12-26T13:03:09.460Z,12.93
2022-12-26T13:06:08.463Z,12.88
2022-12-26T13:08:56.808Z,12.84
2022-12-26T13:11:48.992Z,12.79
2022-12-26T13:15:16.765Z,12.75
2022-12-26T13:18:18.396Z,12.68
2022-12-26T13:21:14.762Z,12.64
2022-12-26T13:24:28.425Z,12.55
2022-12-26T13:27:23.414Z,12.45
2022-12-26T13:30:21.190Z,12.38
2022-12-26T13:33:09.659Z,12.30
2022-12-26T13:36:10.631Z,12.24
2022-12-26T13:39:13.193Z,12.17
2022-12-26T13:42:26.120Z,12.11
2022-12-26T13:45:42.621Z,12.04
2022-12-26T13:48:28.519Z,11.96
2022-12-26T13:51:12.265Z,11.90
2022-12-26T13:54:14.474Z,11.86
2022-12-26T13:57:29.346Z,11.81
2022-12-26T14:00:15.648Z,11.77
2022-12-26T14:03:24.409Z,11.77
2022-12-26T14:06:38.072Z,11.79
2022-12-26T14:09:26.507Z,11.81
2022-12-26T14:12:42.537Z,11.79
2022-12-26T14:15:41.542Z,11.74
2022-12-26T14:19:01.893Z,11.69
2022-12-26T14:22:42.196Z,11.64
2022-12-26T14:25:29.086Z,11.60
2022-12-26T14:28:32.808Z,11.58
2022-12-26T14:31:30.698Z,11.54
2022-12-26T14:34:56.875Z,11.48
2022-12-26T14:38:03.395Z,11.44
2022-12-26T14:41:09.624Z,11.47
2022-12-26T14:43:57.976Z,11.45
2022-12-26T14:46:46.150Z,11.41
2022-12-26T14:49:46.240Z,11.36
2022-12-26T14:52:35.206Z,11.31
2022-12-26T14:55:52.524Z,11.27
2022-12-26T14:58:56.460Z,11.25
2022-12-26T15:01:43.287Z,11.24
2022-12-26T15:05:01.960Z,11.24
2022-12-26T15:08:12.954Z,11.22
2022-12-26T15:11:31.354Z,11.19
2022-12-26T15:14:21.042Z,11.13
2022-12-26T15:17:09.532Z,11.09
2022-12-26T15:20:19.034Z,11.05
2022-12-26T15:23:25.557Z,11.04
2022-12-26T15:26:08.728Z,11.05
2022-12-26T15:29:10.916Z,11.10
2022-12-26T15:32:14.169Z,11.13
2022-12-26T15:35:02.554Z,11.12
2022-12-26T15:38:16.642Z,11.11
2022-12-26T15:44:13.366Z,11.05
2022-12-26T15:47:50.499Z,11.05
2022-12-26T15:50:51.780Z,11.05
2022-12-26T15:53:38.079Z,11.07
2022-12-26T15:56:30.165Z,11.07
2022-12-26T15:59:39.309Z,11.06
2022-12-26T16:02:40.400Z,11.07
2022-12-26T16:05:46.585Z,11.08
2022-12-26T16:09:21.094Z,11.09
2022-12-26T16:12:02.803Z,11.12
2022-12-26T16:14:39.834Z,11.16
2022-12-26T16:17:25.138Z,11.19
2022-12-26T16:20:45.044Z,11.21
2022-12-26T16:23:29.718Z,11.20
2022-12-26T16:26:25.213Z,11.19
2022-12-26T16:29:01.451Z,11.18
2022-12-26T16:31:41.044Z,11.17
2022-12-26T16:34:23.875Z,11.12
2022-12-26T16:37:01.479Z,11.10
2022-12-26T16:39:40.870Z,11.09
2022-12-26T16:42:39.000Z,11.09
2022-12-26T16:45:23.305Z,11.10
2022-12-26T16:48:03.872Z,11.09
2022-12-26T16:50:49.600Z,11.06
2022-12-26T16:53:51.209Z,11.02
2022-12-26T16:56:37.397Z,11.00
2022-12-26T16:59:26.117Z,11.02
2022-12-26T17:02:05.896Z,11.03
2022-12-26T17:07:49.153Z,10.98
2022-12-26T17:10:36.551Z,10.95
2022-12-26T17:13:25.554Z,10.94
2022-12-26T17:16:17.415Z,10.94
2022-12-26T17:19:18.980Z,10.93
2022-12-26T17:22:23.412Z,10.94
2022-12-26T17:25:34.044Z,10.93
2022-12-26T17:28:25.260Z,10.90
2022-12-26T17:31:22.613Z,10.86
2022-12-26T17:34:05.010Z,10.85
2022-12-26T17:37:18.524Z,10.84
2022-12-26T17:39:48.726Z,10.81
2022-12-26T17:42:29.582Z,10.78
2022-12-26T17:45:11.005Z,10.75
2022-12-26T17:48:03.011Z,10.73
2022-12-26T17:50:48.243Z,10.71
2022-12-26T17:53:37.465Z,10.67
2022-12-26T17:56:33.873Z,10.61
2022-12-26T17:59:19.957Z,10.55
2022-12-26T18:02:03.404Z,10.52
2022-12-26T18:04:47.651Z,10.52
2022-12-26T18:07:46.683Z,10.50
2022-12-26T18:10:33.912Z,10.44
2022-12-26T18:13:23.313Z,10.40
2022-12-26T18:16:05.166Z,10.38
2022-12-26T18:18:50.317Z,10.35
2022-12-26T18:21:32.925Z,10.30
2022-12-26T18:24:16.640Z,10.22
2022-12-26T18:26:58.708Z,10.18
2022-12-26T18:29:37.563Z,10.18
2022-12-26T18:32:32.815Z,10.19
2022-12-26T18:35:13.664Z,10.18
2022-12-26T18:38:01.234Z,10.17
2022-12-26T18:40:48.288Z,10.17
2022-12-26T18:43:32.077Z,10.17
2022-12-26T18:46:22.134Z,10.15
2022-12-26T18:49:12.283Z,10.12
2022-12-26T18:51:49.105Z,10.12
2022-12-26T18:54:39.206Z,10.14
2022-12-26T18:57:26.269Z,10.17
2022-12-26T19:00:12.552Z,10.19
2022-12-26T19:02:50.023Z,10.21
2022-12-26T19:05:37.091Z,10.21
2022-12-26T19:08:17.124Z,10.21
2022-12-26T19:11:01.483Z,10.19
2022-12-26T19:13:53.732Z,10.16
2022-12-26T19:16:34.853Z,10.15
2022-12-26T19:19:17.954Z,10.15
2022-12-26T19:22:02.167Z,10.16
2022-12-26T19:24:44.937Z,10.17
2022-12-26T19:27:23.447Z,10.15
2022-12-26T19:30:03.016Z,10.14
2022-12-26T19:32:44.078Z,10.14
2022-12-26T19:35:27.121Z,10.14
2022-12-26T19:38:06.230Z,10.15
2022-12-26T19:40:55.128Z,10.16
2022-12-26T19:43:34.742Z,10.18
2022-12-26T19:46:23.986Z,10.18
2022-12-26T19:49:03.002Z,10.17
2022-12-26T19:51:55.878Z,10.16
2022-12-26T19:54:37.898Z,10.14
2022-12-26T19:57:21.867Z,10.11
2022-12-26T20:00:08.160Z,10.09
2022-12-26T20:03:02.875Z,10.08
2022-12-26T20:05:46.675Z,10.08
2022-12-26T20:08:30.391Z,10.11
2022-12-26T20:11:24.687Z,10.13
2022-12-26T20:14:16.301Z,10.10
2022-12-26T20:17:06.878Z,10.04
2022-12-26T20:19:57.328Z,9.98
2022-12-26T20:22:35.385Z,9.89
2022-12-26T20:25:13.657Z,9.84
2022-12-26T20:27:56.667Z,9.86
2022-12-26T20:30:41.834Z,9.90
2022-12-26T20:33:19.957Z,9.93
2022-12-26T20:36:24.940Z,9.94
2022-12-26T20:39:02.750Z,9.93
2022-12-26T20:41:45.350Z,9.90
2022-12-26T20:44:34.898Z,9.89
2022-12-26T20:47:21.748Z,9.88
2022-12-26T20:50:03.545Z,9.88
2022-12-26T20:52:56.363Z,9.88
2022-12-26T20:55:45.263Z,9.88
2022-12-26T20:58:30.212Z,9.88
2022-12-26T21:01:19.345Z,9.89
2022-12-26T21:04:02.675Z,9.91
2022-12-26T21:06:43.520Z,9.92
2022-12-26T21:09:25.464Z,9.95
2022-12-26T21:12:04.435Z,9.98
2022-12-26T21:14:43.892Z,10.00
2022-12-26T21:17:22.619Z,10.03
2022-12-26T21:20:04.796Z,10.08
2022-12-26T21:22:44.367Z,10.10
2022-12-26T21:25:25.876Z,10.06
2022-12-26T21:28:04.900Z,9.98
2022-12-26T21:30:46.143Z,9.95
2022-12-26T21:33:29.317Z,9.94
2022-12-26T21:36:19.575Z,9.94
2022-12-26T21:38:58.354Z,9.97
2022-12-26T21:41:39.741Z,10.00
2022-12-26T21:44:29.536Z,10.02
2022-12-26T21:47:14.110Z,10.04
2022-12-26T21:49:55.422Z,10.03
2022-12-26T21:52:34.592Z,10.03
2022-12-26T21:55:27.875Z,10.03
2022-12-26T21:58:11.628Z,10.02
2022-12-26T22:00:53.895Z,10.03
2022-12-26T22:04:12.070Z,10.04
2022-12-26T22:06:43.032Z,10.03
2022-12-26T22:12:46.712Z,9.96
2022-12-26T22:15:54.319Z,9.92
2022-12-26T22:18:47.911Z,9.85
2022-12-26T22:21:30.803Z,9.83
2022-12-26T22:24:11.742Z,9.84
2022-12-26T22:26:55.856Z,9.85
2022-12-26T22:30:24.391Z,9.83
2022-12-26T22:33:08.521Z,9.79
2022-12-26T22:36:08.218Z,9.77
2022-12-26T22:38:54.867Z,9.73
2022-12-26T22:41:23.869Z,9.69
2022-12-26T22:44:15.161Z,9.66
2022-12-26T22:47:01.475Z,9.62
2022-12-26T22:49:47.606Z,9.60
2022-12-26T22:52:44.947Z,9.57
2022-12-26T22:55:49.002Z,9.49
2022-12-26T22:58:37.282Z,9.38
2022-12-26T23:01:21.389Z,9.27
2022-12-26T23:04:17.024Z,9.22
2022-12-26T23:06:58.800Z,9.18
2022-12-26T23:09:47.916Z,9.17
2022-12-26T23:12:46.202Z,9.15
2022-12-26T23:15:37.199Z,9.11
2022-12-26T23:18:56.051Z,9.03
2022-12-26T23:21:45.948Z,8.95
2022-12-26T23:24:33.449Z,8.85
2022-12-26T23:30:45.644Z,8.57
2022-12-26T23:33:50.014Z,8.48
2022-12-26T23:36:33.683Z,8.40
2022-12-26T23:39:21.472Z,8.37
2022-12-26T23:42:06.895Z,8.33
2022-12-26T23:45:15.218Z,8.34
2022-12-26T23:48:01.135Z,8.29
2022-12-26T23:50:45.489Z,8.23
2022-12-26T23:53:17.490Z,8.24
2022-12-26T23:56:00.259Z,8.28
2022-12-26T23:58:46.192Z,8.32
